sensor_id;sensor_type;location;lat;lon;timestamp;P1;P4;P2;P0;N10;N4;N25;N1;N05;TS
43196;SPS30;28816;49.852;18.282;2022-07-23T00:02:32;12.840000;;12.830000;12.170000;;;;;;
43196;SPS30;28816;49.852;18.282;2022-07-23T00:07:34;14.140000;;14.110000;13.430000;;;;;;
43196;SPS30;28816;49.852;18.282;2022-07-23T00:12:36;11.960000;;11.900000;11.350000;;;;;;
43196;SPS30;28816;49.852;18.282;2022-07-23T00:17:38;10.400000;;10.330000;9.880000;;;;;;
43196;SPS30;28816;49.852;18.282;2022-07-23T00:22:41;10.530000;;10.530000;9.900000;;;;;;
43196;SPS30;28816;49.852;18.282;2022-07-23T00:27:46;10.010000;;10.000000;9.470000;;;;;;
43196;SPS30;28816;49.852;18.282;2022-07-23T00:32:49;10.680000;;10.710000;10.110000;;;;;;
43196;SPS30;28816;49.852;18.282;2022-07-23T00:37:52;13.390000;;13.520000;12.500000;;;;;;
43196;SPS30;28816;49.852;18.282;2022-07-23T00:42:55;12.480000;;12.520000;11.810000;;;;;;
43196;SPS30;28816;49.852;18.282;2022-07-23T00:47:57;11.900000;;11.880000;11.280000;;;;;;
43196;SPS30;28816;49.852;18.282;2022-07-23T00:52:59;10.380000;;10.460000;9.740000;;;;;;
43196;SPS30;28816;49.852;18.282;2022-07-23T00:58:01;10.360000;;10.420000;9.830000;;;;;;
43196;SPS30;28816;49.852;18.282;2022-07-23T01:03:04;11.490000;;11.400000;10.990000;;;;;;
43196;SPS30;28816;49.852;18.282;2022-07-23T01:08:06;10.430000;;10.390000;9.920000;;;;;;
43196;SPS30;28816;49.852;18.282;2022-07-23T01:13:09;11.930000;;11.940000;11.300000;;;;;;
43196;SPS30;28816;49.852;18.282;2022-07-23T01:18:10;12.740000;;12.760000;12.060000;;;;;;
43196;SPS30;28816;49.852;18.282;2022-07-23T01:23:12;11.930000;;11.910000;11.330000;;;;;;
43196;SPS30;28816;49.852;18.282;2022-07-23T01:28:15;13.800000;;13.720000;13.080000;;;;;;
43196;SPS30;28816;49.852;18.282;2022-07-23T01:33:17;12.990000;;12.880000;12.240000;;;;;;
43196;SPS30;28816;49.852;18.282;2022-07-23T01:38:19;11.710000;;11.660000;11.160000;;;;;;
43196;SPS30;28816;49.852;18.282;2022-07-23T01:43:21;10.900000;;10.960000;10.320000;;;;;;
43196;SPS30;28816;49.852;18.282;2022-07-23T01:48:25;10.010000;;10.010000;9.410000;;;;;;
43196;SPS30;28816;49.852;18.282;2022-07-23T01:53:27;10.510000;;10.390000;10.020000;;;;;;
43196;SPS30;28816;49.852;18.282;2022-07-23T01:58:29;10.350000;;10.350000;9.760000;;;;;;
43196;SPS30;28816;49.852;18.282;2022-07-23T02:03:32;11.670000;;11.700000;11.040000;;;;;;
43196;SPS30;28816;49.852;18.282;2022-07-23T02:08:34;13.090000;;12.990000;12.320000;;;;;;
43196;SPS30;28816;49.852;18.282;2022-07-23T02:13:36;14.360000;;14.350000;13.630000;;;;;;
43196;SPS30;28816;49.852;18.282;2022-07-23T02:18:39;13.210000;;13.090000;12.560000;;;;;;
43196;SPS30;28816;49.852;18.282;2022-07-23T02:23:41;15.310000;;14.900000;14.040000;;;;;;
43196;SPS30;28816;49.852;18.282;2022-07-23T02:28:43;12.080000;;12.000000;11.310000;;;;;;
43196;SPS30;28816;49.852;18.282;2022-07-23T02:33:45;14.990000;;15.070000;14.080000;;;;;;
43196;SPS30;28816;49.852;18.282;2022-07-23T02:38:47;12.650000;;12.640000;11.940000;;;;;;
43196;SPS30;28816;49.852;18.282;2022-07-23T02:43:49;13.890000;;13.860000;13.160000;;;;;;
43196;SPS30;28816;49.852;18.282;2022-07-23T02:48:51;13.680000;;13.690000;12.870000;;;;;;
43196;SPS30;28816;49.852;18.282;2022-07-23T02:53:53;12.130000;;12.100000;11.430000;;;;;;
43196;SPS30;28816;49.852;18.282;2022-07-23T02:58:55;12.540000;;12.290000;11.320000;;;;;;
43196;SPS30;28816;49.852;18.282;2022-07-23T03:03:57;11.310000;;11.370000;10.620000;;;;;;
43196;SPS30;28816;49.852;18.282;2022-07-23T03:08:59;11.660000;;11.630000;11.090000;;;;;;
43196;SPS30;28816;49.852;18.282;2022-07-23T03:14:01;12.350000;;12.040000;11.450000;;;;;;
43196;SPS30;28816;49.852;18.282;2022-07-23T03:19:03;11.490000;;11.440000;10.900000;;;;;;
43196;SPS30;28816;49.852;18.282;2022-07-23T03:24:05;13.860000;;13.910000;13.170000;;;;;;
43196;SPS30;28816;49.852;18.282;2022-07-23T03:29:07;13.820000;;13.950000;12.890000;;;;;;
43196;SPS30;28816;49.852;18.282;2022-07-23T03:34:10;11.180000;;11.170000;10.610000;;;;;;
43196;SPS30;28816;49.852;18.282;2022-07-23T03:39:11;14.150000;;13.980000;13.210000;;;;;;
43196;SPS30;28816;49.852;18.282;2022-07-23T03:44:13;13.330000;;13.440000;12.580000;;;;;;
43196;SPS30;28816;49.852;18.282;2022-07-23T03:49:15;13.300000;;13.330000;12.590000;;;;;;
43196;SPS30;28816;49.852;18.282;2022-07-23T03:54:18;13.720000;;13.630000;13.090000;;;;;;
43196;SPS30;28816;49.852;18.282;2022-07-23T03:59:20;13.060000;;13.050000;12.300000;;;;;;
43196;SPS30;28816;49.852;18.282;2022-07-23T04:04:22;12.500000;;12.490000;11.790000;;;;;;
43196;SPS30;28816;49.852;18.282;2022-07-23T04:09:24;12.740000;;12.700000;12.100000;;;;;;
43196;SPS30;28816;49.852;18.282;2022-07-23T04:14:25;12.900000;;12.930000;12.210000;;;;;;
43196;SPS30;28816;49.852;18.282;2022-07-23T04:19:28;12.940000;;12.930000;12.270000;;;;;;
43196;SPS30;28816;49.852;18.282;2022-07-23T04:24:30;11.810000;;11.820000;11.160000;;;;;;
43196;SPS30;28816;49.852;18.282;2022-07-23T04:29:31;13.200000;;13.230000;12.450000;;;;;;
43196;SPS30;28816;49.852;18.282;2022-07-23T04:34:33;12.410000;;12.370000;11.760000;;;;;;
43196;SPS30;28816;49.852;18.282;2022-07-23T04:39:35;13.270000;;13.320000;12.480000;;;;;;
43196;SPS30;28816;49.852;18.282;2022-07-23T04:44:37;13.720000;;13.780000;12.980000;;;;;;
43196;SPS30;28816;49.852;18.282;2022-07-23T04:49:39;13.070000;;13.080000;12.360000;;;;;;
43196;SPS30;28816;49.852;18.282;2022-07-23T04:54:41;14.390000;;14.480000;13.550000;;;;;;
43196;SPS30;28816;49.852;18.282;2022-07-23T04:59:44;15.500000;;15.570000;14.560000;;;;;;
43196;SPS30;28816;49.852;18.282;2022-07-23T05:04:46;19.020000;;19.080000;17.990000;;;;;;
43196;SPS30;28816;49.852;18.282;2022-07-23T05:09:48;21.850000;;21.900000;20.550000;;;;;;
43196;SPS30;28816;49.852;18.282;2022-07-23T05:14:49;21.170000;;21.030000;20.170000;;;;;;
43196;SPS30;28816;49.852;18.282;2022-07-23T05:19:51;19.430000;;19.370000;18.400000;;;;;;
43196;SPS30;28816;49.852;18.282;2022-07-23T05:24:53;14.170000;;14.060000;13.380000;;;;;;
43196;SPS30;28816;49.852;18.282;2022-07-23T05:29:55;11.880000;;11.900000;11.190000;;;;;;
43196;SPS30;28816;49.852;18.282;2022-07-23T05:34:58;10.860000;;10.780000;10.310000;;;;;;
43196;SPS30;28816;49.852;18.282;2022-07-23T05:40:00;10.840000;;10.850000;10.280000;;;;;;
43196;SPS30;28816;49.852;18.282;2022-07-23T05:45:03;11.860000;;11.970000;11.120000;;;;;;
43196;SPS30;28816;49.852;18.282;2022-07-23T05:50:06;9.550000;;9.550000;9.050000;;;;;;
43196;SPS30;28816;49.852;18.282;2022-07-23T05:55:10;9.750000;;9.800000;9.190000;;;;;;
43196;SPS30;28816;49.852;18.282;2022-07-23T06:00:12;9.670000;;9.720000;9.160000;;;;;;
43196;SPS30;28816;49.852;18.282;2022-07-23T06:05:14;10.590000;;10.640000;9.980000;;;;;;
43196;SPS30;28816;49.852;18.282;2022-07-23T06:10:16;9.590000;;9.630000;9.090000;;;;;;
43196;SPS30;28816;49.852;18.282;2022-07-23T06:15:17;8.760000;;8.740000;8.280000;;;;;;
43196;SPS30;28816;49.852;18.282;2022-07-23T06:20:19;9.960000;;9.970000;9.440000;;;;;;
43196;SPS30;28816;49.852;18.282;2022-07-23T06:25:21;9.880000;;9.900000;9.330000;;;;;;
43196;SPS30;28816;49.852;18.282;2022-07-23T06:30:24;9.470000;;9.520000;8.910000;;;;;;
43196;SPS30;28816;49.852;18.282;2022-07-23T06:35:26;9.160000;;9.150000;8.650000;;;;;;
43196;SPS30;28816;49.852;18.282;2022-07-23T06:40:28;9.900000;;9.910000;9.360000;;;;;;
43196;SPS30;28816;49.852;18.282;2022-07-23T06:45:30;10.430000;;10.220000;9.500000;;;;;;
43196;SPS30;28816;49.852;18.282;2022-07-23T06:50:32;10.500000;;10.470000;9.920000;;;;;;
43196;SPS30;28816;49.852;18.282;2022-07-23T06:55:34;9.830000;;9.790000;9.270000;;;;;;
43196;SPS30;28816;49.852;18.282;2022-07-23T07:00:36;9.920000;;9.910000;9.430000;;;;;;
43196;SPS30;28816;49.852;18.282;2022-07-23T07:05:37;10.400000;;10.360000;9.900000;;;;;;
43196;SPS30;28816;49.852;18.282;2022-07-23T07:10:39;9.520000;;9.570000;8.930000;;;;;;
43196;SPS30;28816;49.852;18.282;2022-07-23T07:15:41;10.220000;;10.190000;9.610000;;;;;;
43196;SPS30;28816;49.852;18.282;2022-07-23T07:20:44;9.940000;;9.970000;9.400000;;;;;;
43196;SPS30;28816;49.852;18.282;2022-07-23T07:25:45;10.040000;;10.110000;9.410000;;;;;;
43196;SPS30;28816;49.852;18.282;2022-07-23T07:30:47;9.990000;;10.100000;9.400000;;;;;;
43196;SPS30;28816;49.852;18.282;2022-07-23T07:35:49;9.070000;;9.050000;8.570000;;;;;;
43196;SPS30;28816;49.852;18.282;2022-07-23T07:40:52;10.540000;;10.510000;9.970000;;;;;;
43196;SPS30;28816;49.852;18.282;2022-07-23T07:45:55;10.790000;;10.760000;10.220000;;;;;;
43196;SPS30;28816;49.852;18.282;2022-07-23T07:50:56;10.640000;;10.600000;10.120000;;;;;;
43196;SPS30;28816;49.852;18.282;2022-07-23T07:55:58;10.360000;;10.330000;9.680000;;;;;;
43196;SPS30;28816;49.852;18.282;2022-07-23T08:01:00;9.450000;;9.440000;8.950000;;;;;;
43196;SPS30;28816;49.852;18.282;2022-07-23T08:06:02;9.270000;;9.340000;8.680000;;;;;;
43196;SPS30;28816;49.852;18.282;2022-07-23T08:11:05;10.090000;;10.160000;9.500000;;;;;;
43196;SPS30;28816;49.852;18.282;2022-07-23T08:16:07;9.030000;;8.980000;8.570000;;;;;;
43196;SPS30;28816;49.852;18.282;2022-07-23T08:21:09;14.370000;;14.260000;13.720000;;;;;;
43196;SPS30;28816;49.852;18.282;2022-07-23T08:26:11;9.700000;;9.660000;9.230000;;;;;;
43196;SPS30;28816;49.852;18.282;2022-07-23T08:31:13;10.810000;;10.800000;10.270000;;;;;;
43196;SPS30;28816;49.852;18.282;2022-07-23T08:36:15;11.130000;;11.180000;10.490000;;;;;;
43196;SPS30;28816;49.852;18.282;2022-07-23T08:41:17;9.970000;;10.030000;9.430000;;;;;;
43196;SPS30;28816;49.852;18.282;2022-07-23T08:46:19;9.610000;;9.520000;9.170000;;;;;;
43196;SPS30;28816;49.852;18.282;2022-07-23T08:51:21;9.570000;;9.610000;9.010000;;;;;;
43196;SPS30;28816;49.852;18.282;2022-07-23T08:56:26;9.850000;;9.740000;9.420000;;;;;;
43196;SPS30;28816;49.852;18.282;2022-07-23T09:01:28;9.110000;;9.090000;8.630000;;;;;;
43196;SPS30;28816;49.852;18.282;2022-07-23T09:06:31;9.210000;;9.170000;8.780000;;;;;;
43196;SPS30;28816;49.852;18.282;2022-07-23T09:11:33;8.550000;;8.510000;8.140000;;;;;;
43196;SPS30;28816;49.852;18.282;2022-07-23T09:16:35;7.620000;;7.660000;7.150000;;;;;;
43196;SPS30;28816;49.852;18.282;2022-07-23T09:21:38;8.410000;;8.390000;7.950000;;;;;;
43196;SPS30;28816;49.852;18.282;2022-07-23T09:26:40;9.500000;;9.590000;8.880000;;;;;;
43196;SPS30;28816;49.852;18.282;2022-07-23T09:31:43;8.490000;;8.500000;8.000000;;;;;;
43196;SPS30;28816;49.852;18.282;2022-07-23T09:36:47;9.630000;;9.650000;9.100000;;;;;;
43196;SPS30;28816;49.852;18.282;2022-07-23T09:41:51;9.110000;;9.060000;8.630000;;;;;;
43196;SPS30;28816;49.852;18.282;2022-07-23T09:46:53;9.370000;;9.470000;8.810000;;;;;;
43196;SPS30;28816;49.852;18.282;2022-07-23T09:51:58;10.380000;;10.310000;9.840000;;;;;;
43196;SPS30;28816;49.852;18.282;2022-07-23T09:57:00;9.190000;;9.170000;8.700000;;;;;;
43196;SPS30;28816;49.852;18.282;2022-07-23T10:02:04;8.620000;;8.650000;8.150000;;;;;;
43196;SPS30;28816;49.852;18.282;2022-07-23T10:07:08;9.590000;;9.610000;9.020000;;;;;;
43196;SPS30;28816;49.852;18.282;2022-07-23T10:12:10;8.760000;;8.850000;8.190000;;;;;;
43196;SPS30;28816;49.852;18.282;2022-07-23T10:17:13;8.640000;;8.640000;8.210000;;;;;;
43196;SPS30;28816;49.852;18.282;2022-07-23T10:22:17;7.300000;;7.220000;6.950000;;;;;;
43196;SPS30;28816;49.852;18.282;2022-07-23T10:27:20;8.080000;;8.150000;7.570000;;;;;;
43196;SPS30;28816;49.852;18.282;2022-07-23T10:32:35;7.770000;;7.790000;7.330000;;;;;;
43196;SPS30;28816;49.852;18.282;2022-07-23T10:37:45;8.630000;;8.620000;8.170000;;;;;;
43196;SPS30;28816;49.852;18.282;2022-07-23T10:42:48;9.340000;;9.390000;8.780000;;;;;;
43196;SPS30;28816;49.852;18.282;2022-07-23T10:47:51;8.360000;;8.350000;7.880000;;;;;;
43196;SPS30;28816;49.852;18.282;2022-07-23T10:52:54;6.840000;;6.830000;6.450000;;;;;;
43196;SPS30;28816;49.852;18.282;2022-07-23T10:58:14;7.230000;;7.190000;6.840000;;;;;;
43196;SPS30;28816;49.852;18.282;2022-07-23T11:03:19;6.420000;;6.420000;6.060000;;;;;;
43196;SPS30;28816;49.852;18.282;2022-07-23T11:08:30;5.290000;;5.330000;4.970000;;;;;;
43196;SPS30;28816;49.852;18.282;2022-07-23T11:13:32;5.100000;;5.070000;4.840000;;;;;;
43196;SPS30;28816;49.852;18.282;2022-07-23T11:18:45;5.050000;;5.040000;4.760000;;;;;;
43196;SPS30;28816;49.852;18.282;2022-07-23T11:23:56;5.750000;;5.730000;5.430000;;;;;;
43196;SPS30;28816;49.852;18.282;2022-07-23T11:28:59;4.690000;;4.710000;4.450000;;;;;;
43196;SPS30;28816;49.852;18.282;2022-07-23T11:34:37;5.120000;;5.060000;4.890000;;;;;;
43196;SPS30;28816;49.852;18.282;2022-07-23T11:39:39;6.230000;;6.240000;5.910000;;;;;;
43196;SPS30;28816;49.852;18.282;2022-07-23T11:44:46;5.820000;;5.830000;5.500000;;;;;;
43196;SPS30;28816;49.852;18.282;2022-07-23T11:49:49;5.080000;;5.070000;4.810000;;;;;;
43196;SPS30;28816;49.852;18.282;2022-07-23T11:54:52;6.130000;;6.080000;5.860000;;;;;;
43196;SPS30;28816;49.852;18.282;2022-07-23T11:59:55;6.140000;;6.100000;5.840000;;;;;;
43196;SPS30;28816;49.852;18.282;2022-07-23T12:05:00;6.880000;;6.850000;6.520000;;;;;;
43196;SPS30;28816;49.852;18.282;2022-07-23T12:10:03;8.120000;;8.120000;7.670000;;;;;;
43196;SPS30;28816;49.852;18.282;2022-07-23T12:15:09;7.520000;;7.490000;7.140000;;;;;;
43196;SPS30;28816;49.852;18.282;2022-07-23T12:20:13;6.610000;;6.590000;6.290000;;;;;;
43196;SPS30;28816;49.852;18.282;2022-07-23T12:25:15;6.770000;;6.760000;6.400000;;;;;;
43196;SPS30;28816;49.852;18.282;2022-07-23T12:30:19;5.700000;;5.760000;5.340000;;;;;;
43196;SPS30;28816;49.852;18.282;2022-07-23T12:35:23;6.280000;;6.270000;5.940000;;;;;;
43196;SPS30;28816;49.852;18.282;2022-07-23T12:40:30;6.980000;;6.950000;6.610000;;;;;;
43196;SPS30;28816;49.852;18.282;2022-07-23T12:45:33;5.760000;;5.740000;5.470000;;;;;;
43196;SPS30;28816;49.852;18.282;2022-07-23T12:50:45;6.350000;;6.450000;5.940000;;;;;;
43196;SPS30;28816;49.852;18.282;2022-07-23T12:55:50;7.020000;;7.040000;6.640000;;;;;;
43196;SPS30;28816;49.852;18.282;2022-07-23T13:00:59;7.000000;;7.020000;6.590000;;;;;;
43196;SPS30;28816;49.852;18.282;2022-07-23T13:06:03;7.710000;;7.730000;7.240000;;;;;;
43196;SPS30;28816;49.852;18.282;2022-07-23T13:11:07;7.630000;;7.680000;7.180000;;;;;;
43196;SPS30;28816;49.852;18.282;2022-07-23T13:16:10;7.670000;;7.690000;7.220000;;;;;;
43196;SPS30;28816;49.852;18.282;2022-07-23T13:21:12;7.490000;;7.510000;7.010000;;;;;;
43196;SPS30;28816;49.852;18.282;2022-07-23T13:26:15;7.000000;;7.040000;6.600000;;;;;;
43196;SPS30;28816;49.852;18.282;2022-07-23T13:31:17;7.350000;;7.300000;7.020000;;;;;;
43196;SPS30;28816;49.852;18.282;2022-07-23T13:36:20;7.200000;;7.210000;6.780000;;;;;;
43196;SPS30;28816;49.852;18.282;2022-07-23T13:41:22;7.510000;;7.550000;7.020000;;;;;;
43196;SPS30;28816;49.852;18.282;2022-07-23T13:46:24;7.510000;;7.580000;7.050000;;;;;;
43196;SPS30;28816;49.852;18.282;2022-07-23T13:51:26;6.890000;;6.900000;6.520000;;;;;;
43196;SPS30;28816;49.852;18.282;2022-07-23T13:56:29;7.630000;;7.570000;7.240000;;;;;;
43196;SPS30;28816;49.852;18.282;2022-07-23T14:01:31;7.120000;;7.170000;6.690000;;;;;;
43196;SPS30;28816;49.852;18.282;2022-07-23T14:06:34;8.170000;;8.210000;7.720000;;;;;;
43196;SPS30;28816;49.852;18.282;2022-07-23T14:11:36;11.040000;;10.970000;10.470000;;;;;;
43196;SPS30;28816;49.852;18.282;2022-07-23T14:16:38;10.490000;;10.400000;9.910000;;;;;;
43196;SPS30;28816;49.852;18.282;2022-07-23T14:21:41;8.970000;;8.870000;8.590000;;;;;;
43196;SPS30;28816;49.852;18.282;2022-07-23T14:26:43;10.470000;;10.550000;9.790000;;;;;;
43196;SPS30;28816;49.852;18.282;2022-07-23T14:31:47;7.820000;;7.810000;7.360000;;;;;;
43196;SPS30;28816;49.852;18.282;2022-07-23T14:36:49;6.900000;;6.910000;6.500000;;;;;;
43196;SPS30;28816;49.852;18.282;2022-07-23T14:41:51;6.280000;;6.300000;5.940000;;;;;;
43196;SPS30;28816;49.852;18.282;2022-07-23T14:46:53;6.340000;;6.320000;5.990000;;;;;;
43196;SPS30;28816;49.852;18.282;2022-07-23T14:51:56;7.160000;;7.170000;6.750000;;;;;;
43196;SPS30;28816;49.852;18.282;2022-07-23T14:56:59;6.760000;;6.760000;6.390000;;;;;;
43196;SPS30;28816;49.852;18.282;2022-07-23T15:02:01;7.210000;;7.280000;6.790000;;;;;;
43196;SPS30;28816;49.852;18.282;2022-07-23T15:07:04;8.780000;;8.680000;8.350000;;;;;;
43196;SPS30;28816;49.852;18.282;2022-07-23T15:12:06;7.320000;;7.350000;6.900000;;;;;;
43196;SPS30;28816;49.852;18.282;2022-07-23T15:17:09;8.120000;;8.130000;7.650000;;;;;;
43196;SPS30;28816;49.852;18.282;2022-07-23T15:22:11;7.390000;;7.390000;6.960000;;;;;;
43196;SPS30;28816;49.852;18.282;2022-07-23T15:27:14;7.320000;;7.330000;6.940000;;;;;;
43196;SPS30;28816;49.852;18.282;2022-07-23T15:32:16;7.280000;;7.280000;6.920000;;;;;;
43196;SPS30;28816;49.852;18.282;2022-07-23T15:37:18;8.270000;;8.260000;7.800000;;;;;;
43196;SPS30;28816;49.852;18.282;2022-07-23T15:42:20;8.020000;;7.990000;7.600000;;;;;;
43196;SPS30;28816;49.852;18.282;2022-07-23T15:47:23;7.920000;;7.980000;7.450000;;;;;;
43196;SPS30;28816;49.852;18.282;2022-07-23T15:52:26;7.650000;;7.610000;7.260000;;;;;;
43196;SPS30;28816;49.852;18.282;2022-07-23T15:57:28;7.750000;;7.770000;7.290000;;;;;;
43196;SPS30;28816;49.852;18.282;2022-07-23T16:02:31;8.330000;;8.300000;7.860000;;;;;;
43196;SPS30;28816;49.852;18.282;2022-07-23T16:07:33;8.220000;;8.170000;7.830000;;;;;;
43196;SPS30;28816;49.852;18.282;2022-07-23T16:12:36;8.240000;;8.200000;7.810000;;;;;;
43196;SPS30;28816;49.852;18.282;2022-07-23T16:17:38;8.730000;;8.750000;8.270000;;;;;;
43196;SPS30;28816;49.852;18.282;2022-07-23T16:22:40;8.810000;;8.850000;8.300000;;;;;;
43196;SPS30;28816;49.852;18.282;2022-07-23T16:27:42;8.040000;;8.030000;7.600000;;;;;;
43196;SPS30;28816;49.852;18.282;2022-07-23T16:32:45;8.310000;;8.350000;7.860000;;;;;;
43196;SPS30;28816;49.852;18.282;2022-07-23T16:37:47;8.470000;;8.500000;7.950000;;;;;;
43196;SPS30;28816;49.852;18.282;2022-07-23T16:42:50;8.990000;;8.960000;8.540000;;;;;;
43196;SPS30;28816;49.852;18.282;2022-07-23T16:47:52;8.910000;;8.920000;8.410000;;;;;;
43196;SPS30;28816;49.852;18.282;2022-07-23T16:52:55;8.720000;;8.770000;8.240000;;;;;;
43196;SPS30;28816;49.852;18.282;2022-07-23T16:58:00;8.730000;;8.810000;8.170000;;;;;;
43196;SPS30;28816;49.852;18.282;2022-07-23T17:03:02;9.330000;;9.250000;8.880000;;;;;;
43196;SPS30;28816;49.852;18.282;2022-07-23T17:08:04;10.630000;;10.570000;10.120000;;;;;;
43196;SPS30;28816;49.852;18.282;2022-07-23T17:13:07;9.540000;;9.570000;9.010000;;;;;;
43196;SPS30;28816;49.852;18.282;2022-07-23T17:18:10;10.010000;;10.000000;9.500000;;;;;;
43196;SPS30;28816;49.852;18.282;2022-07-23T17:23:12;10.500000;;10.600000;9.860000;;;;;;
43196;SPS30;28816;49.852;18.282;2022-07-23T17:28:15;10.750000;;10.740000;10.140000;;;;;;
43196;SPS30;28816;49.852;18.282;2022-07-23T17:33:17;10.580000;;10.580000;10.000000;;;;;;
43196;SPS30;28816;49.852;18.282;2022-07-23T17:38:19;9.840000;;9.840000;9.260000;;;;;;
43196;SPS30;28816;49.852;18.282;2022-07-23T17:43:21;10.100000;;10.190000;9.460000;;;;;;
43196;SPS30;28816;49.852;18.282;2022-07-23T17:48:24;9.750000;;9.790000;9.190000;;;;;;
43196;SPS30;28816;49.852;18.282;2022-07-23T17:53:25;10.210000;;10.180000;9.690000;;;;;;
43196;SPS30;28816;49.852;18.282;2022-07-23T17:58:28;10.890000;;10.900000;10.270000;;;;;;
43196;SPS30;28816;49.852;18.282;2022-07-23T18:03:31;9.980000;;10.120000;9.300000;;;;;;
43196;SPS30;28816;49.852;18.282;2022-07-23T18:08:33;9.980000;;9.940000;9.460000;;;;;;
43196;SPS30;28816;49.852;18.282;2022-07-23T18:13:36;12.670000;;12.660000;11.940000;;;;;;
43196;SPS30;28816;49.852;18.282;2022-07-23T18:18:39;11.230000;;11.280000;10.590000;;;;;;
43196;SPS30;28816;49.852;18.282;2022-07-23T18:23:41;14.060000;;14.180000;13.240000;;;;;;
43196;SPS30;28816;49.852;18.282;2022-07-23T18:28:44;12.550000;;12.540000;11.890000;;;;;;
43196;SPS30;28816;49.852;18.282;2022-07-23T18:33:46;13.230000;;13.160000;12.520000;;;;;;
43196;SPS30;28816;49.852;18.282;2022-07-23T18:38:49;11.870000;;11.950000;11.080000;;;;;;
43196;SPS30;28816;49.852;18.282;2022-07-23T18:43:51;12.980000;;12.990000;12.280000;;;;;;
43196;SPS30;28816;49.852;18.282;2022-07-23T18:48:53;11.640000;;11.660000;10.960000;;;;;;
43196;SPS30;28816;49.852;18.282;2022-07-23T18:53:55;11.920000;;11.930000;11.270000;;;;;;
43196;SPS30;28816;49.852;18.282;2022-07-23T18:58:58;12.900000;;12.820000;12.230000;;;;;;
43196;SPS30;28816;49.852;18.282;2022-07-23T19:04:00;12.150000;;12.190000;11.490000;;;;;;
43196;SPS30;28816;49.852;18.282;2022-07-23T19:09:03;12.420000;;12.440000;11.710000;;;;;;
43196;SPS30;28816;49.852;18.282;2022-07-23T19:14:06;12.310000;;12.360000;11.560000;;;;;;
43196;SPS30;28816;49.852;18.282;2022-07-23T19:19:08;12.250000;;12.270000;11.570000;;;;;;
43196;SPS30;28816;49.852;18.282;2022-07-23T19:24:10;11.890000;;12.010000;11.180000;;;;;;
43196;SPS30;28816;49.852;18.282;2022-07-23T19:29:12;12.860000;;12.880000;12.130000;;;;;;
43196;SPS30;28816;49.852;18.282;2022-07-23T19:34:14;15.440000;;15.560000;14.470000;;;;;;
43196;SPS30;28816;49.852;18.282;2022-07-23T19:39:17;14.410000;;14.400000;13.610000;;;;;;
43196;SPS30;28816;49.852;18.282;2022-07-23T19:44:20;13.520000;;13.430000;12.840000;;;;;;
43196;SPS30;28816;49.852;18.282;2022-07-23T19:49:22;12.310000;;12.350000;11.570000;;;;;;
43196;SPS30;28816;49.852;18.282;2022-07-23T19:54:25;12.330000;;12.320000;11.660000;;;;;;
43196;SPS30;28816;49.852;18.282;2022-07-23T19:59:28;11.030000;;11.080000;10.350000;;;;;;
43196;SPS30;28816;49.852;18.282;2022-07-23T20:04:30;12.560000;;12.580000;11.860000;;;;;;
43196;SPS30;28816;49.852;18.282;2022-07-23T20:09:32;11.030000;;11.030000;10.430000;;;;;;
43196;SPS30;28816;49.852;18.282;2022-07-23T20:14:35;11.490000;;11.500000;10.860000;;;;;;
43196;SPS30;28816;49.852;18.282;2022-07-23T20:19:37;11.670000;;11.640000;11.100000;;;;;;
43196;SPS30;28816;49.852;18.282;2022-07-23T20:24:39;10.730000;;10.760000;10.120000;;;;;;
43196;SPS30;28816;49.852;18.282;2022-07-23T20:29:42;11.370000;;11.390000;10.720000;;;;;;
43196;SPS30;28816;49.852;18.282;2022-07-23T20:34:44;11.140000;;11.110000;10.620000;;;;;;
43196;SPS30;28816;49.852;18.282;2022-07-23T20:39:45;11.560000;;11.620000;10.870000;;;;;;
43196;SPS30;28816;49.852;18.282;2022-07-23T20:44:48;11.090000;;11.040000;10.510000;;;;;;
43196;SPS30;28816;49.852;18.282;2022-07-23T20:49:51;11.790000;;11.820000;11.100000;;;;;;
43196;SPS30;28816;49.852;18.282;2022-07-23T20:54:52;11.670000;;11.680000;10.950000;;;;;;
43196;SPS30;28816;49.852;18.282;2022-07-23T20:59:55;11.610000;;11.640000;10.920000;;;;;;
43196;SPS30;28816;49.852;18.282;2022-07-23T21:04:57;11.510000;;11.500000;10.900000;;;;;;
43196;SPS30;28816;49.852;18.282;2022-07-23T21:09:59;11.310000;;11.390000;10.640000;;;;;;
43196;SPS30;28816;49.852;18.282;2022-07-23T21:15:01;12.180000;;12.190000;11.510000;;;;;;
43196;SPS30;28816;49.852;18.282;2022-07-23T21:20:04;11.790000;;11.850000;11.060000;;;;;;
43196;SPS30;28816;49.852;18.282;2022-07-23T21:25:06;13.130000;;13.040000;12.510000;;;;;;
43196;SPS30;28816;49.852;18.282;2022-07-23T21:30:09;11.580000;;11.660000;10.920000;;;;;;
43196;SPS30;28816;49.852;18.282;2022-07-23T21:35:11;12.040000;;12.080000;11.300000;;;;;;
43196;SPS30;28816;49.852;18.282;2022-07-23T21:40:13;13.000000;;12.910000;12.380000;;;;;;
43196;SPS30;28816;49.852;18.282;2022-07-23T21:45:15;11.910000;;11.910000;11.260000;;;;;;
43196;SPS30;28816;49.852;18.282;2022-07-23T21:50:18;12.890000;;12.980000;12.120000;;;;;;
43196;SPS30;28816;49.852;18.282;2022-07-23T21:55:20;13.330000;;13.330000;12.620000;;;;;;
43196;SPS30;28816;49.852;18.282;2022-07-23T22:00:24;14.220000;;14.270000;13.450000;;;;;;
43196;SPS30;28816;49.852;18.282;2022-07-23T22:05:28;14.220000;;14.170000;13.470000;;;;;;
43196;SPS30;28816;49.852;18.282;2022-07-23T22:10:31;15.470000;;15.450000;14.630000;;;;;;
43196;SPS30;28816;49.852;18.282;2022-07-23T22:15:33;15.650000;;15.680000;14.790000;;;;;;
43196;SPS30;28816;49.852;18.282;2022-07-23T22:20:36;18.860000;;19.070000;17.650000;;;;;;
43196;SPS30;28816;49.852;18.282;2022-07-23T22:25:38;17.180000;;17.060000;16.410000;;;;;;
43196;SPS30;28816;49.852;18.282;2022-07-23T22:30:41;17.750000;;17.680000;16.660000;;;;;;
43196;SPS30;28816;49.852;18.282;2022-07-23T22:35:43;16.790000;;16.730000;15.970000;;;;;;
43196;SPS30;28816;49.852;18.282;2022-07-23T22:40:45;15.620000;;15.690000;14.720000;;;;;;
43196;SPS30;28816;49.852;18.282;2022-07-23T22:45:47;17.840000;;17.570000;16.350000;;;;;;
43196;SPS30;28816;49.852;18.282;2022-07-23T22:50:50;16.230000;;16.290000;15.270000;;;;;;
43196;SPS30;28816;49.852;18.282;2022-07-23T22:55:53;16.770000;;16.660000;15.770000;;;;;;